メインページ
METAR-TAF:

METAR-TAF

空港 :

マイアミ国際空港

マイアミ, フロリダ州, アメリカ合衆国

緯度: 25-47-26N, 経度: 080-18-59W, 海抜: 3m

現時点の気象観測

当レポートは18分前の11:18(UTC)に作成
無風
気温 25°C
湿度 100%
気圧 1018 hPa
視程: 16.1km
高度1500ftの雲はほとんどない
高度2500ftの雲は散在している

METAR: KMIA 141118Z 00000KT 10SM FEW015 SCT025 25/25 A3005 RMK AO2 CB DSNT W-NW MOV NW T02500250

時間: 06:36 (11:36 UTC)

予報

当レポートは1時間27分前の10:09(UTC)に作成
予報は14日の 10時(UTC)から 15日の 12時(UTC)まで有効
変向風 3kt
視程: 10km
高度1600ftの雲はほとんどない
高度2500ftの雲は散在している
高度3500ftの千切れ雲あり
近辺でにわか雨
14日の 10時(UTC)から 14日の 12時(UTC)まで一時的に
高度1500ftの千切れ雲あり
弱いにわか雨
14日の 1400時(UTC)から
東/南東の風 10kt
視程: 10km
高度2500ftの雲は散在している
高度4500ftの雲は散在している
15日の 0100時(UTC)から
変向風 3kt
視程: 10km
高度3500ftの千切れ雲あり
高度15000ftの千切れ雲あり

TAF: KMIA 141009Z 1410/1512 VRB03KT P6SM VCSH FEW016 SCT025 BKN035 TEMPO 1410/1412 -SHRA BKN015 FM141400 12010KT P6SM SCT025 SCT045 FM150100 VRB03KT P6SM BKN035 BKN150

4,000以上の空港の気象観測と天気予報(METAR報とTAF報)

利用可能な観測所は地図上に黄色い丸と赤い丸で示す。

丸の上にカーソルを重ねると観測所名を参照できる。

次にクリックすると気象観測と天気予報を参照できる。

マップの切り替え:黒色「×」印の緑ボタンをクリックして拡大、「-」印の緑ボタンをクリックして縮小、緑色の三角印をクリックして隣りの地図に切り替え


METAR-TAF: